Time;durP1;ratioP1;P1;durP2;ratioP2;P2;SDS_P1;SDS_P2;PMS_P1;PMS_P2;Temp;Humidity;BMP_temperature;BMP_pressure;BME280_temperature;BME280_humidity;BME280_pressure;Samples;Min_cycle;Max_cycle;Signal;HPM_P1;HPM_P2
2023/07/25 00:01:47;;;;;;;6.73;4.23;;;15.70;99.90;;;;;;5001902;28;20188;-90
2023/07/25 00:04:14;;;;;;;4.47;4.07;;;15.70;99.90;;;;;;5022185;28;20236;-91
2023/07/25 00:06:41;;;;;;;5.50;4.60;;;15.70;99.90;;;;;;5019821;28;20200;-91
2023/07/25 00:09:07;;;;;;;8.03;4.00;;;15.70;99.90;;;;;;5018291;28;20210;-91
2023/07/25 00:11:34;;;;;;;5.13;4.73;;;15.70;99.90;;;;;;5018364;28;20530;-91
2023/07/25 00:14:00;;;;;;;6.50;4.30;;;15.70;99.90;;;;;;5020063;28;20180;-91
2023/07/25 00:16:36;;;;;;;6.43;4.40;;;15.70;99.90;;;;;;5001496;28;20211;-90
2023/07/25 00:19:03;;;;;;;5.07;4.67;;;15.70;99.90;;;;;;5019349;28;20326;-91
2023/07/25 00:21:29;;;;;;;7.57;5.00;;;15.60;99.90;;;;;;5018357;28;20188;-90
2023/07/25 00:23:56;;;;;;;10.70;4.80;;;15.60;99.90;;;;;;5029429;28;20220;-90
2023/07/25 00:26:24;;;;;;;11.57;4.93;;;15.60;99.90;;;;;;5010988;28;20200;-90
2023/07/25 00:28:51;;;;;;;7.60;5.57;;;15.60;99.90;;;;;;5020514;28;20718;-90
2023/07/25 00:31:17;;;;;;;10.93;4.83;;;15.60;99.90;;;;;;5019569;28;20203;-90
2023/07/25 00:33:46;;;;;;;5.83;4.83;;;15.60;99.90;;;;;;5019639;28;20176;-91
2023/07/25 00:36:13;;;;;;;7.60;5.57;;;15.60;99.90;;;;;;5020442;28;20200;-91
2023/07/25 00:38:39;;;;;;;4.60;4.30;;;15.60;99.90;;;;;;5019322;28;20658;-91
2023/07/25 00:41:07;;;;;;;8.87;4.67;;;15.70;99.90;;;;;;5018597;28;20261;-91
2023/07/25 00:43:34;;;;;;;5.53;4.37;;;15.70;99.90;;;;;;4985090;28;20216;-91
2023/07/25 00:46:01;;;;;;;6.10;4.47;;;15.70;99.90;;;;;;5019414;28;20200;-91
2023/07/25 00:48:29;;;;;;;9.23;5.03;;;15.70;99.90;;;;;;5003218;28;20191;-90
2023/07/25 00:50:55;;;;;;;8.13;4.93;;;15.60;99.90;;;;;;5003023;28;20283;-91
2023/07/25 00:53:22;;;;;;;10.40;4.80;;;15.60;99.90;;;;;;5018253;28;20184;-91
2023/07/25 00:55:48;;;;;;;8.67;4.70;;;15.60;99.90;;;;;;5017113;28;20235;-91
2023/07/25 00:58:15;;;;;;;8.47;5.17;;;15.60;99.90;;;;;;5018340;28;20191;-91
2023/07/25 01:00:49;;;;;;;4.97;4.57;;;15.60;99.90;;;;;;5018898;28;20539;-91
2023/07/25 01:03:14;;;;;;;8.57;5.00;;;15.60;99.90;;;;;;5002463;28;20327;-91
2023/07/25 01:05:45;;;;;;;6.10;4.83;;;15.60;99.90;;;;;;5018854;28;20219;-91
2023/07/25 01:08:11;;;;;;;8.50;5.33;;;15.60;99.90;;;;;;5018781;28;20176;-91
2023/07/25 01:10:49;;;;;;;7.77;5.60;;;15.60;99.90;;;;;;5019748;28;20176;-91
2023/07/25 01:13:26;;;;;;;10.00;5.40;;;15.60;99.90;;;;;;5017936;28;20188;-91
2023/07/25 01:15:54;;;;;;;6.47;4.80;;;15.60;99.90;;;;;;4998313;28;20246;-91
2023/07/25 01:18:21;;;;;;;8.03;4.37;;;15.60;99.90;;;;;;4983136;28;20195;-91
2023/07/25 01:20:49;;;;;;;6.17;4.37;;;15.50;99.90;;;;;;5016040;28;20203;-91
2023/07/25 01:23:16;;;;;;;6.83;4.63;;;15.50;99.90;;;;;;5021203;28;20199;-93
2023/07/25 01:25:47;;;;;;;5.63;4.77;;;15.50;99.90;;;;;;5038774;28;20203;-91
2023/07/25 01:28:17;;;;;;;6.03;5.20;;;15.50;99.90;;;;;;5021919;28;20529;-91
2023/07/25 01:30:43;;;;;;;5.40;4.60;;;15.50;99.90;;;;;;5016602;28;20184;-91
2023/07/25 01:33:11;;;;;;;6.33;4.40;;;15.50;99.90;;;;;;5018295;28;20206;-91
2023/07/25 01:35:39;;;;;;;6.30;4.33;;;15.50;99.90;;;;;;4999462;28;20196;-91
2023/07/25 01:38:06;;;;;;;5.00;4.50;;;15.30;99.90;;;;;;5014884;28;20188;-91
2023/07/25 01:40:34;;;;;;;6.63;4.70;;;15.30;99.90;;;;;;5017068;28;20207;-90
2023/07/25 01:43:01;;;;;;;11.00;4.90;;;15.30;99.90;;;;;;5000245;28;20208;-91
2023/07/25 01:45:27;;;;;;;10.47;4.90;;;15.30;99.90;;;;;;5001270;28;20204;-90
2023/07/25 01:47:56;;;;;;;7.03;5.00;;;15.20;99.90;;;;;;5016935;28;20180;-91
2023/07/25 01:50:22;;;;;;;5.77;4.47;;;15.20;99.90;;;;;;5017292;28;20180;-90
2023/07/25 01:52:47;;;;;;;7.50;4.60;;;15.20;99.90;;;;;;5003472;28;20192;-91
2023/07/25 01:55:14;;;;;;;5.30;4.30;;;15.20;99.90;;;;;;5038602;28;20189;-92
2023/07/25 01:57:40;;;;;;;5.57;5.03;;;15.20;99.90;;;;;;5038184;28;20195;-92
2023/07/25 02:00:06;;;;;;;5.20;4.70;;;15.10;99.90;;;;;;5031749;28;20208;-91
2023/07/25 02:02:32;;;;;;;6.70;4.57;;;15.10;99.90;;;;;;5017285;28;20203;-91
2023/07/25 02:04:58;;;;;;;4.33;4.03;;;15.00;99.90;;;;;;5016683;28;20215;-91
2023/07/25 02:07:26;;;;;;;7.00;5.27;;;15.00;99.90;;;;;;4983799;28;20799;-90
2023/07/25 02:09:52;;;;;;;6.83;4.97;;;15.00;99.90;;;;;;5015881;28;20176;-91
2023/07/25 02:12:19;;;;;;;5.67;5.07;;;14.90;99.90;;;;;;5014942;28;20271;-91
2023/07/25 02:14:48;;;;;;;5.17;4.67;;;14.80;99.90;;;;;;5015141;28;20180;-91
2023/07/25 02:17:15;;;;;;;7.20;4.90;;;14.80;99.90;;;;;;4999196;28;20180;-91
2023/07/25 02:19:42;;;;;;;6.73;5.90;;;14.70;99.90;;;;;;5016720;28;20172;-90
2023/07/25 02:22:08;;;;;;;11.37;5.07;;;14.60;99.90;;;;;;5014914;28;20718;-91
2023/07/25 02:24:34;;;;;;;5.57;5.07;;;14.60;99.90;;;;;;4999050;28;20358;-91
2023/07/25 02:27:04;;;;;;;10.03;5.33;;;14.50;99.90;;;;;;5014363;28;20208;-91
2023/07/25 02:29:30;;;;;;;10.47;5.53;;;14.50;99.90;;;;;;5014898;28;20665;-91
2023/07/25 02:31:56;;;;;;;5.00;4.50;;;14.40;99.90;;;;;;5008906;28;20176;-91
2023/07/25 02:34:23;;;;;;;5.23;4.73;;;14.40;99.90;;;;;;5025530;28;20190;-90
2023/07/25 02:36:49;;;;;;;5.73;5.07;;;14.40;99.90;;;;;;5023999;28;20204;-91
2023/07/25 02:39:15;;;;;;;6.33;5.53;;;14.40;99.90;;;;;;5008789;28;20183;-91
2023/07/25 02:41:41;;;;;;;6.20;5.57;;;14.40;99.90;;;;;;4991526;28;20188;-92
2023/07/25 02:44:07;;;;;;;9.07;6.00;;;14.40;99.90;;;;;;5001243;28;20208;-90
2023/07/25 02:46:34;;;;;;;6.27;5.67;;;14.40;99.90;;;;;;5010339;28;20204;-91
2023/07/25 02:49:00;;;;;;;7.43;6.20;;;14.40;99.90;;;;;;5030679;28;20179;-91
2023/07/25 02:51:28;;;;;;;6.27;5.20;;;14.40;99.90;;;;;;5011373;28;20184;-90
2023/07/25 02:53:55;;;;;;;7.33;5.63;;;14.30;99.90;;;;;;5001252;28;20184;-90
2023/07/25 02:56:25;;;;;;;6.97;5.90;;;14.40;99.90;;;;;;5016547;28;20211;-91
2023/07/25 02:58:53;;;;;;;6.90;5.97;;;14.40;99.90;;;;;;4999522;28;20195;-90
2023/07/25 03:01:19;;;;;;;13.00;5.90;;;14.30;99.90;;;;;;5014223;28;20275;-91
2023/07/25 03:03:45;;;;;;;6.70;5.60;;;14.30;99.90;;;;;;4998527;28;20281;-91
2023/07/25 03:06:11;;;;;;;6.27;5.67;;;14.40;99.90;;;;;;5015266;28;20199;-91
2023/07/25 03:08:38;;;;;;;8.57;6.00;;;14.40;99.90;;;;;;5015742;28;20168;-90
2023/07/25 03:11:05;;;;;;;12.10;6.10;;;14.40;99.90;;;;;;5014902;28;20750;-90
2023/07/25 03:13:31;;;;;;;7.03;5.87;;;14.40;99.90;;;;;;5014887;28;20187;-90
2023/07/25 03:16:00;;;;;;;7.87;6.27;;;14.30;99.90;;;;;;4999417;28;20204;-91
2023/07/25 03:18:28;;;;;;;8.23;6.00;;;14.40;99.90;;;;;;5014469;28;20187;-91
2023/07/25 03:20:54;;;;;;;11.17;6.70;;;14.40;99.90;;;;;;5016056;28;20177;-91
2023/07/25 03:23:20;;;;;;;8.27;6.33;;;14.50;99.90;;;;;;5016348;28;20204;-91
2023/07/25 03:25:46;;;;;;;7.47;5.80;;;14.50;99.90;;;;;;5016247;28;20199;-91
2023/07/25 03:28:17;;;;;;;6.37;5.73;;;14.60;99.90;;;;;;5019387;28;20173;-91
2023/07/25 03:30:43;;;;;;;8.73;6.13;;;14.60;99.90;;;;;;5003337;28;20196;-91
2023/07/25 03:33:08;;;;;;;6.80;5.43;;;14.60;99.90;;;;;;5018952;28;20180;-91
2023/07/25 03:35:37;;;;;;;6.07;5.43;;;14.60;99.90;;;;;;5020695;28;20213;-92
2023/07/25 03:38:03;;;;;;;9.63;5.63;;;14.60;99.90;;;;;;5003783;28;20275;-91
2023/07/25 03:40:30;;;;;;;8.90;5.97;;;14.60;99.90;;;;;;5003356;28;20203;-91
2023/07/25 03:42:56;;;;;;;7.60;6.20;;;14.60;99.90;;;;;;5019570;28;20259;-90
2023/07/25 03:45:21;;;;;;;7.00;5.67;;;14.60;99.90;;;;;;5003646;28;20196;-90
2023/07/25 03:47:52;;;;;;;7.10;6.50;;;14.60;99.90;;;;;;5020448;28;20180;-90
2023/07/25 03:50:18;;;;;;;9.80;5.33;;;14.50;99.90;;;;;;5003197;28;20692;-91
2023/07/25 03:52:45;;;;;;;7.57;6.63;;;14.40;99.90;;;;;;5003756;28;20180;-91
2023/07/25 03:55:13;;;;;;;6.80;5.70;;;14.30;99.90;;;;;;5021305;28;20222;-91
2023/07/25 03:57:40;;;;;;;9.10;5.97;;;14.30;99.90;;;;;;5022348;28;20180;-90
2023/07/25 04:00:06;;;;;;;12.47;6.47;;;14.20;99.90;;;;;;5021710;28;20196;-91
2023/07/25 04:02:35;;;;;;;9.20;6.40;;;14.10;99.90;;;;;;5021235;28;20259;-91
2023/07/25 04:05:04;;;;;;;7.97;5.90;;;14.10;99.90;;;;;;5004349;28;20195;-91
2023/07/25 04:07:34;;;;;;;8.43;5.90;;;14.00;99.90;;;;;;5021363;28;20222;-91
2023/07/25 04:10:00;;;;;;;11.00;6.93;;;14.00;99.90;;;;;;5025242;28;20243;-90
2023/07/25 04:12:26;;;;;;;6.20;5.57;;;13.90;99.90;;;;;;5026211;28;20593;-90
2023/07/25 04:14:53;;;;;;;8.30;6.23;;;13.90;99.90;;;;;;5005050;28;20169;-91
2023/07/25 04:17:22;;;;;;;5.93;5.43;;;13.80;99.90;;;;;;5023032;28;20231;-90
2023/07/25 04:19:50;;;;;;;6.80;5.63;;;13.80;99.90;;;;;;5021690;28;20187;-90
2023/07/25 04:22:16;;;;;;;6.17;5.67;;;13.80;99.90;;;;;;4989266;28;20184;-90
2023/07/25 04:24:46;;;;;;;10.17;5.73;;;13.70;99.90;;;;;;4988947;28;20200;-90
2023/07/25 04:27:13;;;;;;;7.30;5.70;;;13.70;99.90;;;;;;5005487;28;20177;-90
2023/07/25 04:29:40;;;;;;;8.53;6.33;;;13.70;99.90;;;;;;5020052;28;20187;-90
2023/07/25 04:32:06;;;;;;;8.23;7.00;;;13.70;99.90;;;;;;5021466;28;20180;-90
2023/07/25 04:34:32;;;;;;;10.40;5.97;;;13.80;99.90;;;;;;5021807;28;20231;-91
2023/07/25 04:37:00;;;;;;;9.20;6.47;;;13.80;99.90;;;;;;5020824;28;20212;-91
2023/07/25 04:39:26;;;;;;;7.43;6.47;;;13.90;99.90;;;;;;5024004;28;20211;-91
2023/07/25 04:41:54;;;;;;;8.23;6.40;;;14.00;99.90;;;;;;5021776;28;20184;-90
2023/07/25 04:44:19;;;;;;;12.20;6.70;;;14.10;99.90;;;;;;5021469;28;20211;-91
2023/07/25 04:46:46;;;;;;;13.60;7.80;;;14.10;99.90;;;;;;5022726;28;20606;-90
2023/07/25 04:49:17;;;;;;;9.43;6.07;;;14.30;99.90;;;;;;5018131;28;20180;-90
2023/07/25 04:51:43;;;;;;;8.40;7.17;;;14.30;99.90;;;;;;5000730;28;20263;-90
2023/07/25 04:54:10;;;;;;;7.03;6.43;;;14.30;99.90;;;;;;5018901;28;20172;-92
2023/07/25 04:56:36;;;;;;;7.57;6.83;;;14.30;99.90;;;;;;5039274;28;20184;-92
2023/07/25 04:59:02;;;;;;;12.90;6.67;;;14.50;99.90;;;;;;5018347;28;20650;-91
2023/07/25 05:01:42;;;;;;;17.67;7.50;;;14.60;99.90;;;;;;5022723;28;20307;-90
2023/07/25 05:04:08;;;;;;;7.40;6.60;;;14.70;99.90;;;;;;5020248;28;20242;-91
2023/07/25 05:06:33;;;;;;;7.27;6.57;;;14.80;99.90;;;;;;5019712;28;20545;-91
2023/07/25 05:09:00;;;;;;;7.60;6.33;;;15.00;99.90;;;;;;5019683;28;20176;-91
2023/07/25 05:11:27;;;;;;;8.47;6.40;;;15.20;99.90;;;;;;5019674;28;20187;-90
2023/07/25 05:13:55;;;;;;;9.77;6.23;;;15.50;99.90;;;;;;4986850;28;20180;-91
2023/07/25 05:16:23;;;;;;;11.03;6.30;;;15.70;99.90;;;;;;5018887;28;20211;-91
2023/07/25 05:18:51;;;;;;;11.20;6.10;;;16.00;99.90;;;;;;5019598;28;20184;-91
2023/07/25 05:21:22;;;;;;;7.23;6.20;;;16.10;99.90;;;;;;5018895;28;20650;-91
2023/07/25 05:23:48;;;;;;;7.23;6.50;;;16.20;99.90;;;;;;5019614;28;20725;-87
2023/07/25 05:26:55;;;;;;;8.70;5.37;;;16.30;99.90;;;;;;5020896;28;20192;-92
2023/07/25 05:29:25;;;;;;;8.50;5.47;;;16.20;99.90;;;;;;5007185;28;20608;-91
2023/07/25 05:31:51;;;;;;;10.13;5.17;;;16.30;99.90;;;;;;5017749;28;20292;-91
2023/07/25 05:34:18;;;;;;;5.87;5.37;;;16.20;99.90;;;;;;4987060;28;20211;-91
2023/07/25 05:36:48;;;;;;;8.27;5.97;;;16.10;99.90;;;;;;5004309;28;20208;-91
2023/07/25 05:39:16;;;;;;;8.23;5.50;;;16.00;99.90;;;;;;5017838;28;20187;-91
2023/07/25 05:41:43;;;;;;;14.00;5.90;;;15.90;99.90;;;;;;5001694;28;20194;-90
2023/07/25 05:44:09;;;;;;;9.43;5.30;;;15.90;99.90;;;;;;5017395;28;20276;-89
2023/07/25 05:46:35;;;;;;;6.37;5.30;;;15.90;99.90;;;;;;5003262;28;20238;-89
2023/07/25 05:49:04;;;;;;;7.10;5.43;;;16.00;99.90;;;;;;5018947;28;20176;-92
2023/07/25 05:51:38;;;;;;;9.53;5.53;;;16.20;99.90;;;;;;4999462;28;20185;-91
2023/07/25 05:54:04;;;;;;;6.93;5.67;;;16.30;99.90;;;;;;5001186;28;20268;-91
2023/07/25 05:56:30;;;;;;;8.17;5.47;;;16.50;99.90;;;;;;5003976;28;20232;-92
2023/07/25 05:58:56;;;;;;;9.13;5.43;;;16.70;99.90;;;;;;5018038;28;20172;-92
2023/07/25 06:01:23;;;;;;;9.47;5.77;;;16.80;99.90;;;;;;5034491;28;20165;-92
2023/07/25 06:04:02;;;;;;;9.13;5.23;;;16.90;99.90;;;;;;5014428;28;20301;-92
2023/07/25 06:06:27;;;;;;;8.03;5.10;;;17.20;99.90;;;;;;4998319;28;20273;-91
2023/07/25 06:11:21;;;;;;;5.77;4.73;;;17.30;99.90;;;;;;5718457;23;20280;-74
2023/07/25 06:13:49;;;;;;;9.77;4.97;;;17.40;99.90;;;;;;5051824;28;20177;-74
2023/07/25 06:16:15;;;;;;;7.03;5.07;;;17.40;99.90;;;;;;5051462;28;20175;-76
2023/07/25 06:18:40;;;;;;;9.43;5.20;;;17.40;99.90;;;;;;5050776;28;20178;-76
2023/07/25 06:21:06;;;;;;;4.87;4.47;;;17.40;99.90;;;;;;5040950;28;20237;-75
2023/07/25 06:23:32;;;;;;;8.23;4.57;;;17.60;99.90;;;;;;5031213;28;20555;-74
2023/07/25 06:28:25;;;;;;;8.57;5.40;;;18.10;99.90;;;;;;5029846;28;20676;-71
2023/07/25 06:30:51;;;;;;;7.53;4.30;;;18.50;99.90;;;;;;5030246;28;20175;-71
2023/07/25 06:33:16;;;;;;;4.80;4.27;;;18.50;99.90;;;;;;5031036;28;20182;-71
2023/07/25 06:35:42;;;;;;;7.20;4.23;;;18.60;99.90;;;;;;5031069;28;20199;-71
2023/07/25 06:38:07;;;;;;;7.70;4.47;;;18.50;99.90;;;;;;5030972;28;20171;-70
2023/07/25 06:40:33;;;;;;;8.67;5.07;;;18.60;99.90;;;;;;5030773;28;20184;-70
2023/07/25 06:42:58;;;;;;;6.20;4.57;;;18.40;99.90;;;;;;5030567;28;20203;-71
2023/07/25 06:45:24;;;;;;;8.83;4.90;;;18.40;99.90;;;;;;5030892;28;20211;-72
2023/07/25 06:47:50;;;;;;;10.07;4.40;;;18.30;99.90;;;;;;5031189;28;20542;-70
2023/07/25 06:50:15;;;;;;;7.07;4.37;;;18.10;99.90;;;;;;5031091;28;20164;-70
2023/07/25 06:52:41;;;;;;;10.97;5.13;;;18.20;99.90;;;;;;5029030;28;22263;-70
2023/07/25 06:55:07;;;;;;;7.37;4.30;;;18.50;99.90;;;;;;5031250;28;20195;-70
2023/07/25 06:57:33;;;;;;;11.10;4.37;;;18.70;99.90;;;;;;5031279;28;20510;-70
2023/07/25 06:59:58;;;;;;;7.10;4.43;;;18.90;99.90;;;;;;5033536;28;20178;-71
2023/07/25 07:02:24;;;;;;;8.37;5.03;;;19.20;99.90;;;;;;5034556;28;20183;-70
2023/07/25 07:04:49;;;;;;;7.47;4.47;;;19.70;99.90;;;;;;5035268;28;20197;-70
2023/07/25 07:07:15;;;;;;;7.27;4.20;;;20.00;99.90;;;;;;5034326;28;20168;-71
2023/07/25 07:09:41;;;;;;;11.47;5.17;;;20.20;1.00;;;;;;5033629;28;20179;-71
2023/07/25 07:12:07;;;;;;;4.73;4.30;;;20.20;68.10;;;;;;5034867;28;20237;-70
2023/07/25 07:14:33;;;;;;;8.60;4.00;;;19.80;99.90;;;;;;5034915;28;20195;-71
2023/07/25 07:16:58;;;;;;;9.63;5.07;;;19.60;99.90;;;;;;5035148;28;20175;-70
2023/07/25 07:19:24;;;;;;;5.57;4.03;;;19.30;59.40;;;;;;5034868;28;20655;-70
2023/07/25 07:21:50;;;;;;;5.90;4.60;;;19.30;1.00;;;;;;5034753;28;20182;-71
2023/07/25 07:24:15;;;;;;;8.73;4.50;;;19.40;17.20;;;;;;5034538;28;20195;-71
2023/07/25 07:26:41;;;;;;;6.47;4.43;;;19.70;1.00;;;;;;5034674;28;20732;-69
2023/07/25 07:29:07;;;;;;;6.87;4.80;;;19.60;99.90;;;;;;5034429;28;20186;-69
2023/07/25 07:31:33;;;;;;;7.63;4.60;;;19.30;99.90;;;;;;5034515;28;20168;-69
2023/07/25 07:34:14;;;;;;;7.33;6.13;;;19.00;99.90;;;;;;5034776;28;20521;-70
2023/07/25 07:36:42;;;;;;;7.77;6.20;;;18.90;1.00;;;;;;5034468;28;20193;-71
2023/07/25 07:39:08;;;;;;;9.17;5.97;;;18.70;1.00;;;;;;5033111;28;20171;-70
2023/07/25 07:41:34;;;;;;;12.97;6.70;;;18.60;1.00;;;;;;5033116;28;20528;-70
2023/07/25 07:44:00;;;;;;;9.97;6.97;;;18.60;99.90;;;;;;5034341;28;20603;-70
2023/07/25 07:46:30;;;;;;;9.13;7.13;;;18.50;1.00;;;;;;5034280;28;20184;-70
2023/07/25 07:49:00;;;;;;;11.17;6.80;;;18.60;96.30;;;;;;5032397;28;20211;-70
2023/07/25 07:51:26;;;;;;;11.47;6.83;;;18.70;99.90;;;;;;5033933;28;20233;-70
2023/07/25 07:53:52;;;;;;;15.03;7.57;;;18.70;1.00;;;;;;5034328;28;20182;-70
2023/07/25 07:56:18;;;;;;;12.70;8.17;;;18.80;99.90;;;;;;5034087;28;20227;-70
2023/07/25 07:58:44;;;;;;;8.03;7.27;;;19.00;99.90;;;;;;5033894;28;20241;-70
2023/07/25 08:01:23;;;;;;;7.83;7.07;;;19.10;1.00;;;;;;5032378;28;20191;-70
2023/07/25 08:03:49;;;;;;;9.47;7.13;;;19.10;99.90;;;;;;5034215;28;20207;-70
2023/07/25 08:06:15;;;;;;;11.43;7.80;;;19.30;1.00;;;;;;5033991;28;20740;-70
2023/07/25 08:08:42;;;;;;;10.33;7.77;;;19.60;99.90;;;;;;5033924;28;20171;-70
2023/07/25 08:11:07;;;;;;;10.47;9.47;;;19.90;14.20;;;;;;5033287;28;20206;-70
2023/07/25 08:13:33;;;;;;;10.33;8.97;;;20.00;1.00;;;;;;5033960;28;20167;-70
2023/07/25 08:16:00;;;;;;;11.97;10.43;;;20.00;99.90;;;;;;5031954;28;20214;-70
2023/07/25 08:18:25;;;;;;;10.60;8.97;;;20.10;1.00;;;;;;5034111;28;20555;-70
2023/07/25 08:20:56;;;;;;;11.37;8.53;;;20.00;98.40;;;;;;5033873;28;20355;-69
2023/07/25 08:23:22;;;;;;;10.17;8.70;;;20.00;99.90;;;;;;5033350;28;20203;-70
2023/07/25 08:25:48;;;;;;;9.90;8.90;;;20.00;1.00;;;;;;5033495;28;20207;-70
2023/07/25 08:28:14;;;;;;;12.33;9.20;;;20.10;56.20;;;;;;5033531;28;20221;-70
2023/07/25 08:30:39;;;;;;;14.70;9.23;;;20.30;1.00;;;;;;5033351;28;20179;-70
2023/07/25 08:33:05;;;;;;;16.27;11.17;;;20.50;26.50;;;;;;5033248;28;20537;-69
2023/07/25 08:35:30;;;;;;;13.80;10.57;;;20.70;1.00;;;;;;5033638;28;20199;-70
2023/07/25 08:37:56;;;;;;;11.97;10.17;;;20.80;1.00;;;;;;5033500;28;20175;-70
2023/07/25 08:40:21;;;;;;;9.50;8.50;;;20.80;1.00;;;;;;5033695;28;20266;-70
2023/07/25 08:42:50;;;;;;;10.00;7.73;;;20.80;1.00;;;;;;5031686;28;20233;-69
2023/07/25 08:45:17;;;;;;;8.73;7.22;;;20.80;1.00;;;;;;5033287;28;20192;-70
2023/07/25 08:47:45;;;;;;;11.33;9.20;;;20.90;1.00;;;;;;5033025;28;20214;-70
2023/07/25 08:50:15;;;;;;;11.18;10.07;;;21.00;1.00;;;;;;5033350;28;20604;-69
2023/07/25 08:52:49;;;;;;;10.82;7.55;;;21.30;1.00;;;;;;5032656;28;20180;-69
2023/07/25 08:55:15;;;;;;;8.10;7.15;;;21.80;1.00;;;;;;5033165;28;20226;-69
2023/07/25 08:57:42;;;;;;;6.65;6.13;;;22.20;1.00;;;;;;5033283;28;20199;-70
2023/07/25 09:00:08;;;;;;;8.20;6.15;;;22.30;1.00;;;;;;5032939;28;20591;-70
2023/07/25 09:02:34;;;;;;;5.20;4.80;;;22.40;1.00;;;;;;5032659;28;20640;-70
2023/07/25 09:05:00;;;;;;;5.47;4.65;;;22.40;1.00;;;;;;5031540;28;20199;-71
2023/07/25 09:07:26;;;;;;;4.38;3.25;;;22.50;1.00;;;;;;5033006;28;20167;-70
2023/07/25 09:09:52;;;;;;;4.43;3.58;;;22.20;1.00;;;;;;5033077;28;20656;-70
2023/07/25 09:12:18;;;;;;;6.55;3.72;;;22.00;1.00;;;;;;5032817;28;20174;-70
2023/07/25 09:14:44;;;;;;;3.75;3.15;;;21.80;1.00;;;;;;5031387;28;20196;-70
2023/07/25 09:17:10;;;;;;;6.40;3.55;;;21.90;1.00;;;;;;5032601;28;20645;-70
2023/07/25 09:19:35;;;;;;;3.50;3.20;;;21.70;1.00;;;;;;5032805;28;20203;-70
2023/07/25 09:22:01;;;;;;;6.00;3.08;;;21.40;1.00;;;;;;5031957;28;20176;-70
2023/07/25 09:24:39;;;;;;;5.47;3.17;;;21.20;1.00;;;;;;5031905;28;20566;-70
2023/07/25 09:27:19;;;;;;;3.50;3.15;;;21.10;1.00;;;;;;5032075;28;20535;-70
2023/07/25 09:29:47;;;;;;;9.40;4.10;;;20.90;1.00;;;;;;5032666;28;20182;-70
2023/07/25 09:32:23;;;;;;;8.57;5.70;;;20.50;1.00;;;;;;5031992;28;20172;-70
2023/07/25 09:35:00;;;;;;;6.00;5.27;;;20.30;1.00;;;;;;5030869;28;20199;-70
2023/07/25 09:37:28;;;;;;;9.83;6.07;;;20.20;1.00;;;;;;5032702;28;20536;-71
2023/07/25 09:39:53;;;;;;;7.33;5.10;;;20.00;1.00;;;;;;5032435;28;20176;-70
2023/07/25 09:42:23;;;;;;;7.40;5.63;;;19.90;1.00;;;;;;5031957;28;20172;-71
2023/07/25 09:44:51;;;;;;;8.67;5.67;;;19.80;1.00;;;;;;5030781;28;20226;-69
2023/07/25 09:47:22;;;;;;;8.67;5.07;;;19.80;1.00;;;;;;5031842;28;20179;-69
2023/07/25 09:49:48;;;;;;;7.27;5.00;;;19.90;1.00;;;;;;5032258;28;20167;-70
2023/07/25 09:52:15;;;;;;;7.63;5.27;;;19.90;1.00;;;;;;5031676;28;20171;-70
2023/07/25 09:54:41;;;;;;;5.33;4.80;;;19.90;1.00;;;;;;5031441;28;20203;-69
2023/07/25 09:57:07;;;;;;;6.00;4.70;;;20.00;1.00;;;;;;5032028;28;20203;-70
2023/07/25 09:59:34;;;;;;;5.30;3.97;;;20.20;1.00;;;;;;5032230;28;20175;-69
2023/07/25 10:02:00;;;;;;;6.23;4.50;;;20.20;1.00;;;;;;5031561;28;20176;-71
2023/07/25 10:04:27;;;;;;;6.00;3.90;;;20.20;1.00;;;;;;5031126;28;20199;-70
2023/07/25 10:06:53;;;;;;;5.17;3.67;;;20.40;1.00;;;;;;5031896;28;20577;-69
2023/07/25 10:09:19;;;;;;;3.57;3.07;;;20.50;1.00;;;;;;5031803;28;20193;-69
2023/07/25 10:11:46;;;;;;;3.43;3.13;;;20.60;1.00;;;;;;5031585;28;20178;-69
2023/07/25 10:14:13;;;;;;;5.37;3.20;;;20.70;1.00;;;;;;5031391;28;20518;-70
2023/07/25 10:16:40;;;;;;;4.00;3.05;;;20.70;1.00;;;;;;5031678;28;20540;-70
2023/07/25 10:19:06;;;;;;;3.43;3.00;;;21.00;1.00;;;;;;5031633;28;20176;-69
2023/07/25 10:21:52;;;;;;;2.72;2.53;;;21.30;1.00;;;;;;5031618;28;20224;-69
2023/07/25 10:24:20;;;;;;;3.30;2.95;;;22.00;1.00;;;;;;5031079;28;20210;-69
2023/07/25 10:26:59;;;;;;;4.63;2.20;;;22.60;1.00;;;;;;5031201;28;20179;-69
2023/07/25 10:29:42;;;;;;;2.80;2.45;;;23.00;1.00;;;;;;5031489;28;20171;-71
2023/07/25 10:32:12;;;;;;;4.13;3.55;;;23.30;99.90;;;;;;5031094;28;20167;-70
2023/07/25 10:35:06;;;;;;;3.13;2.92;;;23.70;99.90;;;;;;5030935;28;20204;-70
2023/07/25 10:37:38;;;;;;;5.25;4.88;;;24.30;99.90;;;;;;5026812;28;20257;-70
2023/07/25 10:40:09;;;;;;;6.15;3.65;;;25.20;99.90;;;;;;5030670;28;20186;-69
2023/07/25 10:42:52;;;;;;;3.72;2.80;;;25.70;99.90;;;;;;5031089;28;20567;-70
2023/07/25 10:45:41;;;;;;;4.97;2.42;;;25.70;99.90;;;;;;5030909;28;20227;-69
2023/07/25 10:48:35;;;;;;;5.72;2.70;;;26.20;99.90;;;;;;5030830;28;20207;-70
2023/07/25 10:51:06;;;;;;;5.38;2.53;;;26.60;99.90;;;;;;5031308;28;20174;-69
2023/07/25 10:53:32;;;;;;;4.20;3.88;;;26.70;99.90;;;;;;5031299;28;20532;-70
2023/07/25 10:56:04;;;;;;;7.28;6.88;;;26.60;99.90;;;;;;5029376;28;20201;-70
2023/07/25 10:58:30;;;;;;;7.00;6.40;;;26.30;99.90;;;;;;5031285;28;20175;-70
2023/07/25 11:00:57;;;;;;;3.30;2.35;;;25.80;99.90;;;;;;5031293;28;20177;-69
2023/07/25 11:03:31;;;;;;;6.82;4.45;;;25.10;99.90;;;;;;5030235;28;20611;-70
2023/07/25 11:06:06;;;;;;;3.92;2.88;;;25.00;99.90;;;;;;5029370;28;20240;-68
2023/07/25 11:08:36;;;;;;;3.22;2.90;;;25.20;99.90;;;;;;5030756;28;20644;-70
2023/07/25 11:11:03;;;;;;;10.05;9.20;;;25.60;99.90;;;;;;5031075;28;20197;-72
2023/07/25 11:13:37;;;;;;;4.05;3.25;;;25.70;99.90;;;;;;5030862;28;20649;-69
2023/07/25 11:16:13;;;;;;;4.35;4.15;;;25.30;99.90;;;;;;5030970;28;20210;-69
2023/07/25 11:18:51;;;;;;;4.93;3.38;;;25.50;99.90;;;;;;5030998;28;20170;-72
2023/07/25 11:21:17;;;;;;;3.20;2.78;;;25.70;99.90;;;;;;5030747;28;20604;-68
2023/07/25 11:23:43;;;;;;;6.50;5.65;;;26.00;99.90;;;;;;5031115;28;20210;-69
2023/07/25 11:26:09;;;;;;;13.02;12.32;;;26.00;99.90;;;;;;5030674;28;20278;-70
2023/07/25 11:28:38;;;;;;;7.13;6.53;;;26.10;99.90;;;;;;5030973;28;20175;-69
2023/07/25 11:31:03;;;;;;;7.30;6.90;;;26.40;99.90;;;;;;5028430;28;20233;-70
2023/07/25 11:33:41;;;;;;;7.55;7.05;;;26.70;99.90;;;;;;5029749;28;20176;-69
2023/07/25 11:36:07;;;;;;;7.20;6.65;;;27.10;99.90;;;;;;5029491;28;20206;-70
2023/07/25 11:38:35;;;;;;;4.50;2.53;;;26.80;99.90;;;;;;5030352;28;20279;-70
2023/07/25 11:41:01;;;;;;;3.50;2.60;;;26.00;99.90;;;;;;5030653;28;20520;-70
2023/07/25 11:43:29;;;;;;;5.63;5.22;;;25.60;99.90;;;;;;5030523;28;20210;-70
2023/07/25 11:45:54;;;;;;;4.50;2.60;;;25.00;99.90;;;;;;5031356;28;20183;-69
2023/07/25 11:48:21;;;;;;;6.13;3.05;;;24.50;99.90;;;;;;5034511;28;20473;-70
2023/07/25 11:50:49;;;;;;;6.65;3.25;;;24.00;99.90;;;;;;5034448;28;20197;-69
2023/07/25 11:53:20;;;;;;;7.38;6.88;;;23.60;99.90;;;;;;5033984;28;20599;-69
2023/07/25 11:55:50;;;;;;;3.65;3.30;;;22.90;99.90;;;;;;5034649;28;20711;-69
2023/07/25 11:58:18;;;;;;;4.60;2.70;;;22.60;99.90;;;;;;5034149;28;20187;-70
2023/07/25 12:00:48;;;;;;;2.72;2.53;;;22.10;99.90;;;;;;5034091;28;20175;-69
2023/07/25 12:03:26;;;;;;;7.68;2.97;;;21.80;99.90;;;;;;5032068;28;20211;-69
2023/07/25 12:05:53;;;;;;;3.35;2.92;;;21.70;99.90;;;;;;5034189;28;20724;-69
2023/07/25 12:08:37;;;;;;;3.45;2.90;;;21.80;99.90;;;;;;5034016;28;20268;-68
2023/07/25 12:11:05;;;;;;;6.50;3.00;;;21.90;99.90;;;;;;5033963;28;20167;-69
2023/07/25 12:13:31;;;;;;;5.38;2.70;;;21.70;99.90;;;;;;5033803;28;20227;-69
2023/07/25 12:15:57;;;;;;;2.60;2.40;;;21.60;99.90;;;;;;5033636;28;20317;-69
2023/07/25 12:18:29;;;;;;;4.20;2.17;;;21.80;99.90;;;;;;5033867;28;20265;-68
2023/07/25 12:21:00;;;;;;;4.20;2.38;;;21.80;99.90;;;;;;5033778;28;20179;-69
2023/07/25 12:23:33;;;;;;;4.72;2.70;;;22.10;99.90;;;;;;5033520;28;20211;-68
2023/07/25 12:26:01;;;;;;;5.32;2.92;;;22.40;99.90;;;;;;5033758;28;20283;-68
2023/07/25 12:28:38;;;;;;;2.50;2.30;;;22.40;99.90;;;;;;5217288;22;20282;-70
2023/07/25 12:31:04;;;;;;;3.05;2.38;;;22.20;99.90;;;;;;5013458;28;20176;-70
2023/07/25 12:33:30;;;;;;;4.13;3.28;;;22.10;99.90;;;;;;5013704;28;20179;-73
2023/07/25 12:35:57;;;;;;;5.32;3.55;;;21.90;99.90;;;;;;5012947;28;20684;-70
2023/07/25 12:38:23;;;;;;;4.88;3.10;;;21.60;99.90;;;;;;5011129;28;20558;-70
2023/07/25 12:40:48;;;;;;;3.00;2.80;;;21.50;99.90;;;;;;5013753;28;20176;-71
2023/07/25 12:43:14;;;;;;;4.17;3.40;;;21.20;99.90;;;;;;5013126;28;20342;-72
2023/07/25 12:45:39;;;;;;;4.03;3.43;;;21.10;99.90;;;;;;5013834;28;20175;-70
2023/07/25 12:48:05;;;;;;;5.63;2.50;;;20.90;99.90;;;;;;5013621;28;20224;-69
2023/07/25 12:50:31;;;;;;;4.13;2.63;;;20.70;99.90;;;;;;5012440;28;20226;-71
2023/07/25 12:52:57;;;;;;;4.53;3.27;;;20.50;99.90;;;;;;5011748;28;20278;-71
2023/07/25 12:55:23;;;;;;;4.37;3.10;;;20.40;99.90;;;;;;5012526;28;20307;-70
2023/07/25 12:57:48;;;;;;;2.53;2.43;;;20.40;99.90;;;;;;5013518;28;20271;-69